Mount Airy, NC (27030)

5:42 AM EST on February 09, 2016 (GMT -0500)
Mt. Airy, NC | | Change Station
CLOSE
Current Station
Personal Weather Station
Location: Mt Airy, NC
Elevation: 1197 ft
Nearby Weather Stations

Elev 1197 ft 36.52 °N, 80.64 °W | Updated 13 seconds ago

Overcast
Overcast
32.1 °F
Feels Like 32 °F
N
0.0
Wind Variable Wind from West
Gusts 1.0 mph

Today
High -- | Low -- °F
--% Chance of Precip.
Yesterday
High -- | Low -- °F
Precip. -- in
Pressure 29.63 in
Visibility 10.0 miles
Clouds Scattered Clouds 3400 ft
Mostly Cloudy 5000 ft
Overcast 10000 ft
Windchill 32 °F
Dew Point 25 °F
Humidity 75%
Rainfall 0.00 in
Snow Depth Not available.
7:17 AM 5:56 PM
New Moon, 1% visible
METAR KMWK 091035Z AUTO 26004KT 10SM SCT034 BKN050 OVC100 01/M02 A2963 RMK AO2 T00091021
Pressure 29.63 in
Visibility 10.0 miles
Clouds Scattered Clouds 3400 ft
Mostly Cloudy 5000 ft
Overcast 10000 ft
Windchill 32 °F
Dew Point 25 °F
Humidity 75%
Rainfall 0.00 in
Snow Depth Not available.
7:17 AM 5:56 PM
New Moon, 1% visible
METAR KMWK 091035Z AUTO 26004KT 10SM SCT034 BKN050 OVC100 01/M02 A2963 RMK AO2 T00091021

10-Day Weather Forecast

Almanac

Astronomy

Feb. 09, 2016 Rise Set
Actual Time
Civil Twilight
Nautical Twilight
Astronomical Twilight
Moon
Length of Visible Light
Length of Day
Tomorrow will be .
, % of the Moon is Illuminated

Today's Extremes

State Highs State Lows

Community

WunderPhotos

Upload Photos

1,891,565 photos uploaded!

WunderBlog® & News

Nearby

Air Quality

  Air Quality AQ Index Pollutant
Not available.

Snow Depth

Station Depth Elevation

Earthquake Activity

City Distance Mag. Time & Date
Minimum magnitude displayed is 2.5.

Coastal Water Temperatures

Place Temperature

Stations

Nearby Weather Stations

Station Location Temp. Windchill Dew Point Humidity Wind Precip. Elev Updated Type
                   

Watches & Warnings

There are currently no watches in effect.